Flight Track Log - Related Links

Times and Time Zones

All times are in EDT time to prevent confusion due to time zone crossing. See the WEW1540 flight status page for this flight to view local times or setup timezone preferences in your user account.

Time Position Orientation Groundspeed Altitude Reporting Facility
EDT Latitude Longitude Course Direction KTS MPH feet Rate Location/Type
Mon 08:22:43 AM 50.4000 -104.7167 265° West 100 115 2,700  Level Winnipeg Center
Mon 08:23:43 AM 50.4167 -104.7500 308° West 90 104 3,300 450 Climbing Winnipeg Center
Mon 08:24:43 AM 50.4167 -104.8000 270° West 100 115 3,600 200 Climbing Winnipeg Center
Mon 08:26:00 AM 50.4167 -104.8828 270° West  Level FlightAware
Mon 08:26:43 AM 50.4167 -104.8833 270° West 100 115 3,900  Level Winnipeg Center
Mon 08:28:00 AM 50.4093 -105.1009 265° West  Level FlightAware
Mon 08:28:00 AM 50.4167 -104.9661 270° West  Level FlightAware
Mon 08:28:43 AM 50.4167 -104.9833 270° West 110 127 3,900  Level Winnipeg Center
Mon 08:29:43 AM 50.4167 -105.0333 270° West 110 127 3,900  Level Winnipeg Center
Mon 08:30:43 AM 50.4167 -105.0667 270° West 110 127 3,900  Level Winnipeg Center
Mon 08:32:00 AM 50.4099 -105.1487 263° West  Level FlightAware
Mon 08:32:43 AM 50.4833 -105.0833 263° West 130 150 3,900  Level Winnipeg Center
Mon 08:33:43 AM 50.5167 -105.0500 32° Northeast 140 161 3,900  Level Winnipeg Center
Mon 08:34:43 AM 50.5500 -105.0333 18° North 140 161 3,900  Level Winnipeg Center
Mon 08:35:43 AM 50.5833 -105.0167 18° North 140 161 3,900  Level Winnipeg Center
Mon 08:36:43 AM 50.5667 -104.9333 107° East 150 173 3,900 -233 Level Winnipeg Center
Mon 08:38:00 AM 50.5581 -105.0030 259° West  Level FlightAware
Mon 08:38:43 AM 50.5333 -104.8500 259° West 140 161 3,200  Level Winnipeg Center
Mon 08:40:00 AM 50.5297 -104.9206 265° West  Level FlightAware
Mon 08:40:43 AM 50.4833 -104.7833 265° West 120 138 2,900  Level Winnipeg Center
Mon 08:41:43 AM 50.4500 -104.7333 136° Southeast 130 150 2,700 -350 Descending Winnipeg Center
Mon 08:42:43 AM 50.4333 -104.7000 128° Southeast 120 138 2,200 -500 Descending Winnipeg Center
Mon 08:44:00 AM 50.4235 -104.7690 257° West  Level FlightAware
Mon 08:51:00 AM 50.5048 -104.9471 North  Level FlightAware
Mon 08:52:00 AM 50.5396 -104.9394 North  Level FlightAware
Mon 08:53:00 AM 50.5652 -104.9453 259° West  Level FlightAware
Mon 08:54:00 AM 50.5585 -104.9996 259° West  Level FlightAware
Mon 08:55:00 AM 50.5518 -105.0538 259° West  Level FlightAware
Mon 08:56:00 AM 50.5451 -105.1081 259° West  Level FlightAware
Mon 08:57:00 AM 50.5384 -105.1623 259° West  Level FlightAware
Mon 08:58:00 AM 50.5316 -105.2165 259° West  Level FlightAware
Mon 08:59:00 AM 50.5248 -105.2707 259° West  Level FlightAware
Mon 09:00:00 AM 50.5180 -105.3249 259° West  Level FlightAware
Mon 09:01:00 AM 50.5111 -105.3790 259° West  Level FlightAware
Mon 09:02:00 AM 50.5043 -105.4332 259° West  Level FlightAware
Mon 09:03:00 AM 50.4980 -105.4874 261° West  Level FlightAware
Mon 09:04:00 AM 50.4925 -105.5420 261° West  Level FlightAware
Mon 09:05:00 AM 50.4871 -105.5965 261° West  Level FlightAware
Mon 09:06:00 AM 50.4817 -105.6510 261° West  Level FlightAware
Mon 09:07:00 AM 50.4762 -105.7055 261° West  Level FlightAware
Mon 09:08:00 AM 50.4707 -105.7600 261° West  Level FlightAware
Mon 09:09:00 AM 50.4651 -105.8144 261° West  Level FlightAware
Mon 09:10:00 AM 50.4596 -105.8689 261° West  Level FlightAware
Mon 09:11:00 AM 50.4540 -105.9233 261° West  Level FlightAware
Mon 09:12:00 AM 50.4484 -105.9778 261° West  Level FlightAware
Mon 09:13:00 AM 50.4427 -106.0322 261° West  Level FlightAware
Mon 09:14:00 AM 50.4371 -106.0866 261° West  Level FlightAware
Mon 09:15:00 AM 50.4314 -106.1410 261° West  Level FlightAware
Mon 09:16:00 AM 50.4257 -106.1954 261° West  Level FlightAware
Mon 09:17:00 AM 50.4199 -106.2497 261° West  Level FlightAware
Mon 09:18:00 AM 50.4142 -106.3041 261° West  Level FlightAware
Mon 09:19:00 AM 50.4084 -106.3584 261° West  Level FlightAware
Mon 09:20:00 AM 50.4026 -106.4127 260° West  Level FlightAware
Mon 09:21:00 AM 50.3967 -106.4670 260° West  Level FlightAware
Mon 09:22:00 AM 50.3909 -106.5213 260° West  Level FlightAware
Mon 09:23:00 AM 50.3850 -106.5756 260° West  Level FlightAware
Mon 09:24:00 AM 50.3791 -106.6299 260° West  Level FlightAware
Mon 09:25:00 AM 50.3731 -106.6842 260° West  Level FlightAware
Mon 09:26:00 AM 50.3672 -106.7384 260° West  Level FlightAware
Mon 09:27:00 AM 50.3612 -106.7926 260° West  Level FlightAware
Mon 09:28:00 AM 50.3552 -106.8469 260° West  Level FlightAware
Mon 09:29:00 AM 50.3491 -106.9011 260° West  Level FlightAware
Mon 09:30:00 AM 50.3431 -106.9553 260° West  Level FlightAware
Mon 09:31:00 AM 50.3370 -107.0094 260° West  Level FlightAware
Mon 09:32:00 AM 50.3308 -107.0636 260° West  Level FlightAware
Mon 09:33:00 AM 50.3247 -107.1178 260° West  Level FlightAware
Mon 09:34:00 AM 50.3186 -107.1719 260° West  Level FlightAware
Mon 09:35:00 AM 50.3124 -107.2260 260° West  Level FlightAware
Mon 09:36:00 AM 50.3061 -107.2801 260° West  Level FlightAware
Mon 09:37:00 AM 50.3000 -107.3342 270° West  Level FlightAware

Login

Don't have an account? Register now (free) for customized features, flight alerts, and more!